キンシャサ の空港の天気 - METARとTAF

キンシャサ/ヌジリ国際空港 ( FZAA / FIH ) - コンゴ民主共和国 キンシャサ
飛行場実況気象(Metar)
観測時間07/21 18:00 WAT (07/21 17:00 UTC)
風向・風速西南西 4m/s
視程5000m
天気現象煙霧
なし
気温26℃
湿度70%
気圧1011hPa
METARFZAA 211700Z 25008KT 5000 HZ NSC 26/20 Q1011 BECMG 3000 BR
過去の天気等 Google飛行場航空写真 Wunderground天気予報

過去48時間のMETAR

飛行場予報(TAF)
発表時間: 7/21 12:00 WAT (7/21 11:00 UTC)
予報対象時間: 21日13時 WAT ~ 22日19時 WAT
風向・風速西北西 4m/s
視程7000m
なし
21日19時 WAT ~ 21日21時 WAT に徐々に
風向・風速南 1m/s
22日5時 WAT ~ 22日7時 WAT に徐々に
視程3000m
天気現象もや
全天の8割程度の雲 雲底高度 430m
22日12時 WAT ~ 22日14時 WAT に徐々に
風向・風速西北西 4m/s
視程6000m
天気現象運行に影響にある天気現象が終了
少しの雲 雲底高度 610m
TAF FZAA 211100Z 2112/2218 30008KT 7000 NSC
BECMG 2118/2120 18002KT
BECMG 2204/2206 3000 BR BKN014
BECMG 2211/2213 30008KT 6000 NSW FEW020